KAGC METAR
PITTSBURGH/ALLEG, PA
Metar
KAGC 181153Z 19007KT 9SM BKN004 OVC013 22/21 A2986 RMK AO2 CIG 003V007 SLP107 60034 7//// T02220206 10222 20217 51003

11:53 UTC

Wind: 190° 7kt

Visibility: 9 SM

Sky: BKN 400 ft

Temp: 22 deg C / 71.6 deg F

Dewpoint: 21 deg C / 69.8 deg F

Pressure: 29.86 inHg

TAF
KAGC 181121Z 1812/1912 21006KT P6SM VCSH BKN008 TEMPO 1812/1813 5SM -SHRA BR BKN004 FM181500 21005KT P6SM VCSH SCT010 BKN015 TEMPO 1815/1816 BKN010 FM181600 24008KT P6SM SCT020 FM182000 25010G19KT P6SM SCT040 FM190300 25004KT 5SM BR SCT020